createdAt,value
2019-03-28T00:10:27.439Z,22.30
2019-03-28T00:21:27.298Z,26.60
2019-03-28T00:32:27.187Z,23.90
2019-03-28T00:43:27.056Z,22.10
2019-03-28T00:54:26.924Z,23.50
2019-03-28T01:05:26.818Z,22.00
2019-03-28T01:16:26.675Z,19.50
2019-03-28T01:27:26.552Z,29.40
2019-03-28T01:38:26.425Z,29.10
2019-03-28T01:49:26.302Z,36.10
2019-03-28T02:00:26.195Z,30.10
2019-03-28T02:11:26.063Z,26.80
2019-03-28T02:22:25.934Z,29.40
2019-03-28T02:33:25.813Z,27.20
2019-03-28T02:44:25.734Z,27.80
2019-03-28T02:55:25.579Z,20.30
2019-03-28T03:06:25.458Z,30.60
2019-03-28T03:17:25.329Z,33.60
2019-03-28T03:28:25.199Z,29.30
2019-03-28T03:39:25.101Z,31.20
2019-03-28T03:50:24.950Z,35.30
2019-03-28T04:01:24.843Z,29.30
2019-03-28T04:12:24.704Z,36.40
2019-03-28T04:23:24.607Z,30.90
2019-03-28T04:34:24.455Z,26.30
2019-03-28T04:45:24.333Z,19.00
2019-03-28T04:56:24.223Z,25.50
2019-03-28T05:07:24.152Z,31.70
2019-03-28T05:18:23.958Z,28.50
2019-03-28T05:29:23.844Z,31.80
2019-03-28T05:40:23.718Z,33.60
2019-03-28T05:51:23.633Z,59.60
2019-03-28T06:02:24.327Z,42.30
2019-03-28T06:13:23.341Z,29.60
2019-03-28T06:24:23.218Z,52.90
2019-03-28T06:35:23.155Z,54.30
2019-03-28T06:46:22.974Z,42.30
2019-03-28T06:57:22.874Z,43.70
2019-03-28T07:08:22.723Z,45.20
2019-03-28T07:19:22.614Z,39.90
2019-03-28T07:30:22.486Z,44.00
2019-03-28T07:41:22.369Z,37.90
2019-03-28T07:52:22.238Z,41.80
2019-03-28T08:03:22.102Z,40.30
2019-03-28T08:14:21.984Z,31.00
2019-03-28T08:25:21.865Z,46.10
2019-03-28T08:36:21.736Z,48.60
2019-03-28T08:47:21.626Z,41.40
2019-03-28T08:58:21.495Z,30.50
2019-03-28T09:09:21.545Z,34.30
2019-03-28T09:20:21.244Z,30.80
2019-03-28T09:31:21.110Z,26.50
2019-03-28T09:42:20.981Z,32.20
2019-03-28T09:53:20.877Z,25.70
2019-03-28T10:04:20.736Z,30.20
2019-03-28T10:15:20.609Z,20.20
2019-03-28T10:26:20.489Z,21.80
2019-03-28T10:37:20.366Z,19.90
2019-03-28T10:48:23.383Z,25.30
2019-03-28T10:59:23.684Z,16.20
2019-03-28T11:10:19.994Z,17.60
2019-03-28T11:21:19.861Z,18.10
2019-03-28T11:32:19.742Z,23.40
2019-03-28T11:43:19.731Z,15.50
2019-03-28T11:54:19.519Z,17.90
2019-03-28T12:05:19.375Z,29.50
2019-03-28T12:16:19.246Z,11.90
2019-03-28T12:27:19.124Z,10.50
2019-03-28T12:38:19.003Z,12.60
2019-03-28T12:49:18.889Z,12.80
2019-03-28T13:00:18.752Z,8.60
2019-03-28T13:08:27.996Z,10.00
2019-03-28T13:15:49.879Z,8.90
2019-03-28T13:26:29.429Z,7.80
2019-03-28T13:37:29.305Z,6.60
2019-03-28T13:48:29.190Z,11.90
2019-03-28T13:59:29.069Z,6.20
2019-03-28T14:10:28.934Z,13.10
2019-03-28T14:21:28.811Z,6.90
2019-03-28T14:32:28.947Z,8.50
2019-03-28T14:43:28.568Z,14.60
2019-03-28T14:54:28.433Z,8.20
2019-03-28T15:05:28.326Z,8.20
2019-03-28T15:16:28.208Z,5.40
2019-03-28T15:27:28.063Z,6.00
2019-03-28T15:38:31.111Z,7.50
2019-03-28T15:49:28.091Z,6.10
2019-03-28T16:00:29.296Z,8.50
2019-03-28T16:11:27.563Z,4.20
2019-03-28T16:22:27.463Z,5.40
2019-03-28T16:33:27.314Z,6.90
2019-03-28T16:44:27.196Z,5.10
2019-03-28T16:55:28.207Z,4.90
2019-03-28T17:06:26.953Z,6.80
2019-03-28T17:17:26.819Z,4.60
2019-03-28T17:28:26.689Z,4.50
2019-03-28T17:39:26.564Z,8.20
2019-03-28T17:50:26.441Z,5.70
2019-03-28T18:01:26.321Z,5.90
2019-03-28T18:12:26.186Z,4.50
2019-03-28T18:23:26.071Z,6.00
2019-03-28T18:34:25.941Z,5.00
2019-03-28T18:45:25.816Z,4.40
2019-03-28T18:56:25.703Z,6.20
2019-03-28T19:07:25.579Z,6.80
2019-03-28T19:18:25.733Z,11.30
2019-03-28T19:29:26.318Z,19.00
2019-03-28T19:40:25.193Z,32.50
2019-03-28T19:51:28.148Z,10.80
2019-03-28T20:02:25.010Z,5.10
2019-03-28T20:13:24.833Z,8.70
2019-03-28T20:24:24.700Z,14.90
2019-03-28T20:35:24.585Z,12.80
2019-03-28T20:46:24.450Z,11.30
2019-03-28T20:57:24.336Z,8.90
2019-03-28T21:08:24.205Z,12.30
2019-03-28T21:19:24.073Z,11.00
2019-03-28T21:30:26.957Z,11.20
2019-03-28T21:41:23.843Z,9.50
2019-03-28T21:52:23.722Z,10.90
2019-03-28T22:03:23.599Z,9.90
2019-03-28T22:14:23.466Z,10.80
2019-03-28T22:25:23.322Z,12.20
2019-03-28T22:36:23.198Z,9.00
2019-03-28T22:47:23.078Z,9.80
2019-03-28T22:58:22.973Z,5.90
2019-03-28T23:09:22.828Z,10.00
2019-03-28T23:20:23.813Z,9.20
2019-03-28T23:31:22.590Z,6.30
2019-03-28T23:42:22.482Z,6.80
2019-03-28T23:53:22.338Z,6.70
